Time;durP1;ratioP1;P1;durP2;ratioP2;P2;SDS_P1;SDS_P2;PMS_P1;PMS_P2;Temp;Humidity;BMP_temperature;BMP_pressure;BME280_temperature;BME280_humidity;BME280_pressure;Samples;Min_cycle;Max_cycle;Signal;HPM_P1;HPM_P2
2022/12/10 00:01:33;;;;;;;27.80;13.17;;;4.70;89.20;;;;;;5006070;28;20234;-96
2022/12/10 00:07:20;;;;;;;23.97;11.87;;;4.70;89.00;;;;;;5030740;28;20190;-96
2022/12/10 00:16:19;;;;;;;22.93;11.47;;;4.60;89.40;;;;;;5012211;28;20208;-96
2022/12/10 00:19:14;;;;;;;28.90;12.47;;;4.70;89.60;;;;;;5030590;28;20201;-96
2022/12/10 00:21:48;;;;;;;26.27;11.47;;;4.70;89.90;;;;;;5030568;28;20225;-96
2022/12/10 00:24:18;;;;;;;24.00;11.40;;;4.70;89.40;;;;;;5030753;28;20198;-95
2022/12/10 00:26:58;;;;;;;27.57;13.00;;;4.70;89.50;;;;;;5035773;28;20292;-96
2022/12/10 00:33:00;;;;;;;22.70;11.17;;;4.70;90.00;;;;;;5032429;28;20242;-96
2022/12/10 00:38:39;;;;;;;26.37;12.20;;;4.70;90.10;;;;;;5023946;28;20218;-96
2022/12/10 00:41:10;;;;;;;29.27;13.27;;;4.70;90.00;;;;;;5028911;28;20253;-95
2022/12/10 00:43:53;;;;;;;31.63;13.73;;;4.70;90.00;;;;;;5031237;28;20197;-96
2022/12/10 00:46:24;;;;;;;20.47;11.67;;;4.70;90.20;;;;;;5014985;28;20220;-96
2022/12/10 00:48:55;;;;;;;25.57;12.30;;;4.70;90.10;;;;;;5022675;28;20594;-96
2022/12/10 00:51:30;;;;;;;21.50;11.77;;;4.70;90.10;;;;;;5019566;28;20207;-94
2022/12/10 00:54:20;;;;;;;27.40;13.10;;;4.70;90.20;;;;;;5024060;28;20201;-96
2022/12/10 00:56:55;;;;;;;33.40;12.53;;;4.70;90.30;;;;;;5022440;28;20266;-96
2022/12/10 01:03:16;;;;;;;27.53;10.33;;;4.80;90.40;;;;;;5025885;28;20260;-96
2022/12/10 02:11:51;;;;;;;17.00;9.07;;;4.70;90.20;;;;;;5025152;28;20206;-96
2022/12/10 02:18:19;;;;;;;23.20;10.37;;;4.70;90.00;;;;;;5026823;28;20244;-96
2022/12/10 08:06:07;;;;;;;25.17;13.17;;;3.70;91.20;;;;;;4998950;28;20218;-96
2022/12/10 08:13:13;;;;;;;28.50;13.00;;;3.70;91.20;;;;;;4983895;28;20230;-95
2022/12/10 09:02:59;;;;;;;27.07;12.90;;;3.80;91.60;;;;;;4962546;28;20246;-94
2022/12/10 09:05:45;;;;;;;26.90;12.80;;;3.80;91.60;;;;;;4963994;28;20230;-96
2022/12/10 09:08:20;;;;;;;27.00;13.03;;;3.90;91.60;;;;;;4965646;29;20211;-96
2022/12/10 09:10:50;;;;;;;27.23;13.00;;;3.90;91.60;;;;;;4966202;29;20234;-95
2022/12/10 09:13:29;;;;;;;30.87;13.33;;;3.90;91.60;;;;;;4964129;28;20235;-96
2022/12/10 09:15:58;;;;;;;27.00;13.10;;;3.90;91.50;;;;;;4950526;29;20203;-95
2022/12/10 09:18:30;;;;;;;32.03;14.40;;;4.00;91.60;;;;;;4962967;29;20291;-95
2022/12/10 09:20:59;;;;;;;28.87;13.57;;;4.00;91.60;;;;;;4964361;28;20263;-96
2022/12/10 09:23:28;;;;;;;24.13;12.80;;;3.90;91.50;;;;;;4963820;29;20295;-95
2022/12/10 09:25:55;;;;;;;30.37;13.90;;;4.00;91.30;;;;;;4957731;29;20205;-95
2022/12/10 09:28:27;;;;;;;32.07;13.77;;;4.00;91.50;;;;;;4965593;29;20310;-95
2022/12/10 09:30:59;;;;;;;27.73;13.40;;;4.00;92.00;;;;;;4967807;28;20243;-95
2022/12/10 09:33:28;;;;;;;26.40;12.30;;;4.00;91.70;;;;;;4963918;28;20215;-95
2022/12/10 09:35:57;;;;;;;27.27;13.43;;;4.10;91.90;;;;;;4955541;29;20209;-95
2022/12/10 09:38:26;;;;;;;32.33;13.13;;;4.10;91.90;;;;;;4950267;29;20547;-95
2022/12/10 09:41:00;;;;;;;21.93;12.10;;;4.20;92.00;;;;;;4968618;28;20212;-96
2022/12/10 09:43:43;;;;;;;24.20;11.87;;;4.10;92.10;;;;;;4966932;28;20446;-95
2022/12/10 09:46:23;;;;;;;29.53;13.17;;;4.10;92.10;;;;;;4965770;29;20207;-95
2022/12/10 09:49:03;;;;;;;26.27;12.10;;;4.20;92.20;;;;;;4968494;29;20226;-96
2022/12/10 09:51:34;;;;;;;27.63;11.83;;;4.30;92.20;;;;;;4970673;28;20271;-95
2022/12/10 09:54:22;;;;;;;23.93;12.10;;;4.30;92.20;;;;;;4968539;29;20204;-95
2022/12/10 09:56:51;;;;;;;27.40;12.80;;;4.30;92.30;;;;;;4954867;29;20200;-94
2022/12/10 09:59:22;;;;;;;28.10;11.93;;;4.30;92.10;;;;;;4958578;29;20231;-95
2022/12/10 10:01:58;;;;;;;26.10;11.67;;;4.40;92.30;;;;;;4968027;28;20228;-95
2022/12/10 10:04:27;;;;;;;22.10;11.23;;;4.40;92.50;;;;;;4966331;29;20268;-96
2022/12/10 10:06:57;;;;;;;29.27;13.17;;;4.50;92.40;;;;;;4969929;28;20689;-96
2022/12/10 10:09:25;;;;;;;29.23;12.73;;;4.50;92.30;;;;;;4971806;29;20263;-95
2022/12/10 10:11:54;;;;;;;25.07;11.37;;;4.50;92.50;;;;;;4973117;29;20209;-95
2022/12/10 10:14:26;;;;;;;24.90;11.53;;;4.60;92.70;;;;;;4968534;29;20217;-95
2022/12/10 10:17:00;;;;;;;24.83;11.93;;;4.60;92.70;;;;;;4966775;29;20770;-95
2022/12/10 10:19:32;;;;;;;25.13;10.93;;;4.70;92.70;;;;;;4966824;29;20207;-94
2022/12/10 10:22:00;;;;;;;31.23;12.57;;;4.70;92.60;;;;;;4969496;29;20254;-95
2022/12/10 10:24:35;;;;;;;27.40;11.43;;;4.80;92.60;;;;;;4960762;28;20199;-95
2022/12/10 10:27:13;;;;;;;24.83;11.83;;;4.80;92.60;;;;;;4967463;29;20188;-95
2022/12/10 10:29:41;;;;;;;22.83;11.10;;;4.80;92.60;;;;;;4957982;29;20208;-95
2022/12/10 10:32:18;;;;;;;19.67;9.73;;;4.80;92.40;;;;;;4956918;29;20211;-94
2022/12/10 10:34:53;;;;;;;26.13;12.33;;;4.90;92.60;;;;;;4965497;29;20606;-94
2022/12/10 10:37:23;;;;;;;30.47;12.63;;;4.90;92.50;;;;;;4965421;28;20215;-94
2022/12/10 10:39:54;;;;;;;23.13;11.50;;;5.00;92.50;;;;;;4964427;29;20216;-93
2022/12/10 10:42:29;;;;;;;25.53;12.20;;;5.00;92.50;;;;;;4964133;28;20243;-95
2022/12/10 10:44:57;;;;;;;23.00;11.57;;;5.00;92.70;;;;;;4963044;29;20243;-94
2022/12/10 10:47:30;;;;;;;23.47;10.60;;;5.10;92.60;;;;;;4964856;29;20212;-93
2022/12/10 10:50:01;;;;;;;24.37;10.77;;;5.10;92.70;;;;;;4961291;29;20565;-95
2022/12/10 10:52:36;;;;;;;23.17;10.97;;;5.20;92.60;;;;;;4964469;28;20247;-94
2022/12/10 10:55:07;;;;;;;24.90;11.43;;;5.20;92.70;;;;;;4956597;29;20295;-95
2022/12/10 10:57:38;;;;;;;22.70;10.77;;;5.20;92.60;;;;;;4960429;28;20320;-94
2022/12/10 11:00:18;;;;;;;24.67;10.90;;;5.30;92.60;;;;;;4956606;29;20242;-94
2022/12/10 11:02:45;;;;;;;22.17;10.40;;;5.40;92.60;;;;;;4944893;29;20330;-94
2022/12/10 11:05:23;;;;;;;21.83;9.83;;;5.40;92.70;;;;;;4948581;29;20208;-95
2022/12/10 11:07:59;;;;;;;22.73;10.50;;;5.50;93.10;;;;;;4958859;29;20734;-94
2022/12/10 11:10:28;;;;;;;23.67;10.80;;;5.50;93.20;;;;;;4950827;28;20214;-93
2022/12/10 11:13:03;;;;;;;25.13;11.43;;;5.60;93.40;;;;;;4955089;28;20209;-94
2022/12/10 11:15:39;;;;;;;22.90;10.80;;;5.70;93.80;;;;;;4958382;28;20271;-95
2022/12/10 11:18:32;;;;;;;20.67;10.17;;;5.80;94.00;;;;;;4958169;29;20219;-94
2022/12/10 11:21:21;;;;;;;21.23;10.80;;;5.90;94.00;;;;;;4957870;29;20207;-94
2022/12/10 11:23:52;;;;;;;20.97;10.13;;;6.10;94.20;;;;;;4954335;29;20232;-94
2022/12/10 11:26:44;;;;;;;22.73;11.17;;;6.30;93.90;;;;;;4960306;29;20656;-93
2022/12/10 11:29:25;;;;;;;23.00;11.97;;;6.50;93.90;;;;;;4973440;28;20198;-94
2022/12/10 11:32:08;;;;;;;21.30;11.73;;;6.70;93.80;;;;;;4966048;28;20662;-93
2022/12/10 11:34:52;;;;;;;18.93;10.00;;;6.80;93.60;;;;;;4971102;28;20217;-95
2022/12/10 11:37:31;;;;;;;21.93;10.57;;;7.10;93.70;;;;;;4960655;28;20629;-95
2022/12/10 11:40:15;;;;;;;25.27;11.73;;;7.30;93.50;;;;;;4944780;29;20191;-95
2022/12/10 11:42:54;;;;;;;29.07;13.37;;;7.50;93.20;;;;;;4958251;29;20329;-95
2022/12/10 11:45:31;;;;;;;21.50;11.27;;;7.70;93.00;;;;;;4958489;29;20644;-94
2022/12/10 11:48:11;;;;;;;28.33;13.20;;;7.90;92.40;;;;;;4958139;29;20259;-96
2022/12/10 11:50:46;;;;;;;26.70;13.07;;;8.10;91.50;;;;;;4958395;29;20199;-95
2022/12/10 11:53:51;;;;;;;31.77;13.90;;;8.30;91.10;;;;;;4958228;28;20225;-94
2022/12/10 11:56:29;;;;;;;23.60;12.73;;;8.40;91.10;;;;;;4961409;28;20214;-95
2022/12/10 11:59:12;;;;;;;22.10;12.53;;;8.70;91.00;;;;;;4961973;29;20226;-95
2022/12/10 12:02:14;;;;;;;22.70;12.13;;;8.80;91.00;;;;;;4963516;28;20215;-96
2022/12/10 12:05:05;;;;;;;20.73;12.20;;;9.00;89.50;;;;;;4962852;28;20212;-96
2022/12/10 12:07:46;;;;;;;23.53;12.47;;;9.20;90.10;;;;;;4962016;29;20222;-95
2022/12/10 12:10:42;;;;;;;24.23;12.40;;;9.40;90.30;;;;;;4960384;29;20207;-95
2022/12/10 12:13:12;;;;;;;21.60;10.90;;;9.60;88.10;;;;;;4957055;28;20195;-95
2022/12/10 12:15:44;;;;;;;19.77;11.47;;;9.80;86.90;;;;;;4961819;29;20270;-94
2022/12/10 12:18:35;;;;;;;18.63;10.47;;;9.90;86.00;;;;;;4964905;29;20289;-95
2022/12/10 12:21:14;;;;;;;14.87;9.53;;;10.00;83.50;;;;;;4961818;29;20231;-95
2022/12/10 12:24:02;;;;;;;20.93;10.50;;;10.10;82.50;;;;;;4947254;29;20282;-95
2022/12/10 12:26:36;;;;;;;20.37;11.23;;;10.30;81.40;;;;;;4962829;29;20271;-95
2022/12/10 12:29:21;;;;;;;17.03;10.37;;;10.30;83.00;;;;;;4978913;28;20215;-95
2022/12/10 12:31:55;;;;;;;13.93;9.53;;;10.40;83.50;;;;;;4960317;28;20207;-95
2022/12/10 12:34:30;;;;;;;17.83;9.70;;;10.50;84.40;;;;;;4957976;29;20957;-95
2022/12/10 12:37:01;;;;;;;15.97;9.97;;;10.70;83.10;;;;;;4962577;28;20205;-95
2022/12/10 12:39:40;;;;;;;15.40;9.70;;;10.80;82.50;;;;;;4950006;29;20200;-95
2022/12/10 12:42:20;;;;;;;16.33;10.53;;;10.90;81.30;;;;;;4954410;29;20204;-93
2022/12/10 12:45:04;;;;;;;17.23;9.83;;;11.10;80.50;;;;;;4958705;29;20203;-94
2022/12/10 12:47:41;;;;;;;18.43;10.27;;;11.20;79.70;;;;;;4959262;29;20265;-95
2022/12/10 12:50:26;;;;;;;12.40;8.47;;;11.30;79.30;;;;;;4958537;28;20258;-96
2022/12/10 12:52:58;;;;;;;12.67;8.23;;;11.40;78.00;;;;;;4959332;29;20227;-95
2022/12/10 12:55:34;;;;;;;10.77;7.30;;;11.60;78.50;;;;;;4948693;29;20310;-95
2022/12/10 12:58:16;;;;;;;15.20;8.50;;;11.60;76.60;;;;;;4949925;29;20213;-95
2022/12/10 13:00:47;;;;;;;13.87;7.67;;;11.70;76.80;;;;;;4959700;28;20221;-95
2022/12/10 13:03:29;;;;;;;14.87;8.30;;;11.70;77.40;;;;;;4945941;29;20989;-95
2022/12/10 13:06:12;;;;;;;10.77;7.20;;;11.80;76.30;;;;;;4948779;28;20214;-95
2022/12/10 13:08:45;;;;;;;12.40;6.33;;;11.80;76.40;;;;;;4954669;28;20240;-95
2022/12/10 13:11:20;;;;;;;12.27;6.07;;;11.80;74.90;;;;;;4949059;29;20210;-95
2022/12/10 13:14:18;;;;;;;13.17;6.50;;;11.90;75.10;;;;;;4937520;29;20564;-95
2022/12/10 13:17:00;;;;;;;12.37;6.60;;;11.90;74.60;;;;;;4957458;29;20272;-96
2022/12/10 13:19:36;;;;;;;13.67;7.53;;;11.90;74.20;;;;;;4952434;28;20216;-96
2022/12/10 13:22:10;;;;;;;16.77;7.30;;;11.90;74.90;;;;;;4953939;29;20214;-95
2022/12/10 13:25:11;;;;;;;15.83;6.13;;;12.00;75.10;;;;;;4955354;29;20235;-96
2022/12/10 13:27:41;;;;;;;12.80;6.73;;;12.00;73.80;;;;;;4969713;28;20215;-94
2022/12/10 13:30:42;;;;;;;8.00;5.13;;;12.10;73.10;;;;;;4967084;29;20197;-96
2022/12/10 13:36:05;;;;;;;7.37;4.20;;;12.10;72.90;;;;;;4966146;28;20284;-96
2022/12/10 13:38:48;;;;;;;11.03;5.10;;;12.20;72.20;;;;;;4965317;29;20216;-96
2022/12/10 13:44:39;;;;;;;8.50;4.63;;;12.10;71.20;;;;;;4958897;29;20235;-96
2022/12/10 13:48:05;;;;;;;;;;;;;;;;;;;;;
2022/12/10 13:55:02;;;;;;;11.90;5.63;;;11.90;69.20;;;;;;4928654;29;20251;-96
2022/12/10 13:58:11;;;;;;;9.43;4.63;;;11.80;69.30;;;;;;4916227;29;20232;-96
2022/12/10 14:01:00;;;;;;;7.20;3.43;;;11.70;68.40;;;;;;4846417;29;20587;-94
2022/12/10 14:04:05;;;;;;;8.40;4.73;;;11.60;68.80;;;;;;4938112;29;20243;-95
2022/12/10 14:06:37;;;;;;;8.23;4.10;;;11.50;68.70;;;;;;4946595;29;20207;-96
2022/12/10 14:09:11;;;;;;;11.77;5.20;;;11.40;69.30;;;;;;4956787;29;20233;-95
2022/12/10 14:12:14;;;;;;;12.93;5.07;;;11.30;69.60;;;;;;4962581;28;20204;-96
2022/12/10 14:15:28;;;;;;;9.83;5.00;;;11.20;69.60;;;;;;4958432;28;20530;-96
2022/12/10 14:21:08;;;;;;;6.53;4.13;;;11.10;70.40;;;;;;4960960;28;20200;-96
2022/12/10 14:23:48;;;;;;;11.00;5.27;;;11.00;69.60;;;;;;4961946;29;20246;-94
2022/12/10 14:26:22;;;;;;;12.27;5.83;;;11.00;68.90;;;;;;4971842;28;20197;-96
2022/12/10 14:28:56;;;;;;;8.97;4.57;;;10.90;69.10;;;;;;4958140;28;20263;-95
2022/12/10 14:31:28;;;;;;;11.00;5.37;;;10.80;68.70;;;;;;4966955;28;20203;-96
2022/12/10 14:34:04;;;;;;;12.83;5.57;;;10.70;69.40;;;;;;4963119;28;20240;-96
2022/12/10 14:36:37;;;;;;;16.07;6.10;;;10.60;69.30;;;;;;4965066;29;20238;-96
2022/12/10 14:39:17;;;;;;;8.87;4.77;;;10.50;69.40;;;;;;4963567;29;20204;-96
2022/12/10 14:42:08;;;;;;;8.30;4.57;;;10.50;69.40;;;;;;4963689;29;20204;-96
2022/12/10 14:44:48;;;;;;;8.30;4.63;;;10.40;69.40;;;;;;4952182;29;20455;-96
2022/12/10 14:47:22;;;;;;;15.80;6.37;;;10.30;69.60;;;;;;4962664;29;20290;-95
2022/12/10 14:49:55;;;;;;;17.93;5.23;;;10.20;69.70;;;;;;4953775;29;20270;-95
2022/12/10 14:52:35;;;;;;;14.67;6.10;;;10.20;70.10;;;;;;4956868;29;20223;-96
2022/12/10 14:55:05;;;;;;;11.73;5.53;;;10.10;69.80;;;;;;4942213;29;20661;-95
2022/12/10 14:57:39;;;;;;;15.60;6.43;;;10.10;70.20;;;;;;4957789;29;20218;-96
2022/12/10 15:00:16;;;;;;;10.77;6.10;;;10.00;70.30;;;;;;4957650;29;20208;-96
2022/12/10 15:02:53;;;;;;;13.77;6.70;;;9.90;71.30;;;;;;4954637;28;20215;-96
2022/12/10 15:05:26;;;;;;;17.00;7.43;;;9.90;71.10;;;;;;4954810;29;20234;-95
2022/12/10 15:07:58;;;;;;;11.90;5.80;;;9.80;71.10;;;;;;4955648;28;20206;-96
2022/12/10 15:10:36;;;;;;;12.47;6.40;;;9.80;71.40;;;;;;4946011;29;20194;-96
2022/12/10 15:13:06;;;;;;;15.23;7.10;;;9.70;71.40;;;;;;4955258;29;20241;-96
2022/12/10 15:15:41;;;;;;;13.03;7.37;;;9.70;71.70;;;;;;4951124;29;20207;-95
2022/12/10 15:18:17;;;;;;;11.87;6.60;;;9.60;71.60;;;;;;4952204;28;20216;-96
2022/12/10 15:20:49;;;;;;;14.50;7.37;;;9.60;71.50;;;;;;4954600;29;21581;-96
2022/12/10 15:23:23;;;;;;;14.47;7.70;;;9.50;71.60;;;;;;4952851;28;20293;-96
2022/12/10 15:25:58;;;;;;;20.03;8.43;;;9.50;71.60;;;;;;4961127;29;20202;-96
2022/12/10 15:28:33;;;;;;;12.23;6.77;;;9.40;72.10;;;;;;4955527;29;20212;-96
2022/12/10 15:34:14;;;;;;;10.47;7.40;;;9.30;72.00;;;;;;4964491;28;20227;-96
2022/12/10 15:36:50;;;;;;;14.17;8.17;;;9.30;72.10;;;;;;4964347;28;20204;-96
2022/12/10 15:39:29;;;;;;;15.07;7.80;;;9.20;72.00;;;;;;4948970;29;20267;-96
2022/12/10 15:42:00;;;;;;;16.13;7.43;;;9.10;72.00;;;;;;4963485;28;20214;-95
2022/12/10 15:44:41;;;;;;;18.83;9.73;;;9.00;71.90;;;;;;4959867;29;20324;-96
2022/12/10 15:47:17;;;;;;;11.17;7.63;;;8.90;71.90;;;;;;4947593;29;20235;-95
2022/12/10 15:49:57;;;;;;;13.27;7.90;;;8.90;72.10;;;;;;4961277;29;20207;-95
2022/12/10 15:52:33;;;;;;;15.93;8.73;;;8.80;72.30;;;;;;4955021;29;20215;-96
2022/12/10 15:55:01;;;;;;;16.60;8.90;;;8.70;72.50;;;;;;4957229;29;20214;-96
2022/12/10 15:57:48;;;;;;;16.10;8.40;;;8.70;72.90;;;;;;4966516;29;20214;-96
2022/12/10 16:00:21;;;;;;;16.50;7.97;;;8.70;73.10;;;;;;4974131;28;20230;-96
2022/12/10 16:05:47;;;;;;;17.53;7.97;;;8.60;73.30;;;;;;4960835;29;20317;-95
2022/12/10 16:08:26;;;;;;;13.50;9.07;;;8.50;73.50;;;;;;4960037;28;20207;-96
2022/12/10 16:10:59;;;;;;;15.50;8.93;;;8.50;73.50;;;;;;4951245;28;20214;-96
2022/12/10 16:16:39;;;;;;;17.97;9.17;;;8.40;74.00;;;;;;4955440;28;20250;-96
2022/12/10 16:19:19;;;;;;;16.07;9.33;;;8.40;74.00;;;;;;4961560;29;20221;-96
2022/12/10 16:28:33;;;;;;;12.93;8.63;;;8.20;74.00;;;;;;4973488;28;20226;-96
2022/12/10 16:34:01;;;;;;;15.73;10.07;;;8.10;74.10;;;;;;4972063;28;20200;-96
2022/12/10 16:55:16;;;;;;;18.60;10.37;;;7.60;74.60;;;;;;4967391;28;20213;-96
2022/12/10 17:01:20;;;;;;;27.80;11.50;;;7.40;75.20;;;;;;4941571;28;20233;-96
2022/12/10 17:03:54;;;;;;;18.17;10.50;;;7.40;75.50;;;;;;4963238;29;20234;-96
2022/12/10 17:06:34;;;;;;;20.40;11.20;;;7.30;75.50;;;;;;4959982;29;20512;-96
2022/12/10 17:09:07;;;;;;;16.20;11.03;;;7.30;76.00;;;;;;4959822;29;20611;-95
2022/12/10 17:11:47;;;;;;;20.13;10.63;;;7.20;76.10;;;;;;4959996;28;20271;-96
2022/12/10 17:14:30;;;;;;;20.43;10.40;;;7.20;76.40;;;;;;4959834;29;20207;-96
2022/12/10 17:17:00;;;;;;;19.90;11.63;;;7.10;76.60;;;;;;4957737;29;20207;-96
2022/12/10 17:19:34;;;;;;;22.20;10.57;;;7.10;76.80;;;;;;4958301;28;20271;-96
2022/12/10 17:22:17;;;;;;;15.93;9.57;;;7.10;76.90;;;;;;4955907;29;20221;-96
2022/12/10 17:24:52;;;;;;;19.90;11.33;;;7.10;77.10;;;;;;4959476;29;20229;-96
2022/12/10 17:27:26;;;;;;;23.40;12.37;;;7.10;77.70;;;;;;4963696;29;20226;-96
2022/12/10 17:29:54;;;;;;;20.17;11.53;;;7.10;77.80;;;;;;4962555;29;20193;-96
2022/12/10 17:32:33;;;;;;;21.23;12.40;;;7.10;78.10;;;;;;4950316;28;20204;-96
2022/12/10 17:35:08;;;;;;;22.90;13.03;;;7.10;78.40;;;;;;4953169;29;20283;-96
2022/12/10 17:37:42;;;;;;;20.57;12.07;;;7.10;78.40;;;;;;4957019;28;20211;-96
2022/12/10 17:40:21;;;;;;;24.00;12.87;;;7.10;78.70;;;;;;4941890;28;20233;-96
2022/12/10 17:42:54;;;;;;;24.40;13.47;;;7.10;79.00;;;;;;4956212;29;20206;-96
2022/12/10 17:45:23;;;;;;;19.13;11.87;;;7.10;78.90;;;;;;4957346;29;20248;-96
2022/12/10 17:48:00;;;;;;;21.47;12.50;;;7.10;78.80;;;;;;4958995;29;20222;-95
2022/12/10 17:50:32;;;;;;;21.90;12.03;;;7.10;79.40;;;;;;4955800;29;20232;-95
2022/12/10 17:53:14;;;;;;;21.03;11.83;;;7.20;79.40;;;;;;4956182;28;20294;-95
2022/12/10 17:55:56;;;;;;;19.83;13.23;;;7.20;79.20;;;;;;4956440;29;20211;-96
2022/12/10 17:58:46;;;;;;;19.90;12.37;;;7.20;79.20;;;;;;4959057;29;20747;-96
2022/12/10 18:01:38;;;;;;;21.97;12.67;;;7.20;78.70;;;;;;4953812;29;20217;-96
2022/12/10 18:04:19;;;;;;;15.87;10.70;;;7.20;78.40;;;;;;4941935;29;20216;-96
2022/12/10 18:06:50;;;;;;;22.30;12.33;;;7.20;78.10;;;;;;4950156;29;20271;-96
2022/12/10 18:09:49;;;;;;;16.77;10.67;;;7.20;78.00;;;;;;4959235;28;20205;-96
2022/12/10 18:12:22;;;;;;;18.23;11.30;;;7.10;77.80;;;;;;4963931;28;20308;-96
2022/12/10 18:15:09;;;;;;;21.10;11.30;;;7.10;77.30;;;;;;4946022;29;20201;-96
2022/12/10 18:20:29;;;;;;;26.47;12.43;;;7.00;77.10;;;;;;4966987;28;20194;-96
2022/12/10 18:23:10;;;;;;;20.73;10.50;;;6.90;76.90;;;;;;4954135;28;20313;-96
2022/12/10 18:25:44;;;;;;;13.87;9.63;;;6.90;76.90;;;;;;4944859;29;20229;-96
2022/12/10 18:28:44;;;;;;;20.20;10.77;;;6.80;76.70;;;;;;4949202;29;20203;-96
2022/12/10 18:31:33;;;;;;;17.43;10.50;;;6.80;76.90;;;;;;4963706;28;20214;-96
2022/12/10 18:34:05;;;;;;;18.00;11.00;;;6.70;76.90;;;;;;4960396;29;20215;-96
2022/12/10 18:36:42;;;;;;;18.97;10.43;;;6.60;76.90;;;;;;4958486;28;20209;-96
2022/12/10 18:39:33;;;;;;;12.93;8.37;;;6.50;77.00;;;;;;4960763;28;20211;-96
2022/12/10 18:42:08;;;;;;;16.67;9.40;;;6.50;77.10;;;;;;4962464;28;20212;-96
2022/12/10 18:44:58;;;;;;;14.43;8.37;;;6.40;76.90;;;;;;4962745;29;20228;-96
2022/12/10 18:47:30;;;;;;;11.77;7.73;;;6.40;77.10;;;;;;4944002;29;20224;-96
2022/12/10 18:49:59;;;;;;;14.67;8.17;;;6.30;77.10;;;;;;4946317;29;20210;-96
2022/12/10 18:52:48;;;;;;;12.60;8.37;;;6.20;77.20;;;;;;4945069;29;20220;-96
2022/12/10 18:55:25;;;;;;;18.33;8.83;;;6.20;77.50;;;;;;4942971;29;20235;-96
2022/12/10 18:58:03;;;;;;;14.03;8.50;;;6.10;77.70;;;;;;4940588;29;20475;-96
2022/12/10 19:00:40;;;;;;;15.97;8.00;;;6.10;78.00;;;;;;4941409;29;20286;-96
2022/12/10 19:03:14;;;;;;;11.87;7.90;;;6.00;78.10;;;;;;4941243;29;20585;-96
2022/12/10 19:05:59;;;;;;;12.60;7.67;;;6.00;78.30;;;;;;4938839;29;20231;-96
2022/12/10 19:11:15;;;;;;;18.47;9.37;;;5.90;78.70;;;;;;4940150;29;20202;-96
2022/12/10 19:13:59;;;;;;;20.13;10.17;;;5.90;79.10;;;;;;4961309;29;20238;-96
2022/12/10 19:16:35;;;;;;;18.73;8.93;;;5.80;78.80;;;;;;4963479;28;20218;-96
2022/12/10 19:19:13;;;;;;;19.40;9.67;;;5.90;79.20;;;;;;4970672;28;20207;-96
2022/12/10 19:21:58;;;;;;;22.47;10.43;;;5.80;79.20;;;;;;4973481;28;20266;-96
2022/12/10 19:24:42;;;;;;;14.50;9.20;;;5.80;79.20;;;;;;4962532;29;20204;-96
2022/12/10 19:27:13;;;;;;;19.30;10.30;;;5.80;78.80;;;;;;4964104;28;20650;-96
2022/12/10 19:30:04;;;;;;;14.73;8.17;;;5.80;78.90;;;;;;4961618;29;20640;-96
2022/12/10 19:36:08;;;;;;;17.27;9.27;;;5.70;79.40;;;;;;4963434;28;20235;-96
2022/12/10 19:42:04;;;;;;;17.30;8.87;;;5.70;78.80;;;;;;4960316;28;20233;-96
2022/12/10 19:56:55;;;;;;;18.63;9.07;;;5.50;78.80;;;;;;4944274;29;20267;-96
2022/12/10 20:06:22;;;;;;;19.27;8.73;;;5.40;79.50;;;;;;4959131;28;20269;-96
2022/12/10 20:09:12;;;;;;;11.93;7.57;;;5.30;79.50;;;;;;4942935;29;20295;-96
2022/12/10 20:11:43;;;;;;;15.07;8.10;;;5.30;80.10;;;;;;4942000;29;20238;-96
2022/12/10 20:14:17;;;;;;;14.63;7.63;;;5.30;79.20;;;;;;4964118;29;20206;-96
2022/12/10 20:17:05;;;;;;;14.73;7.87;;;5.20;79.60;;;;;;4962155;28;20649;-96
2022/12/10 20:19:42;;;;;;;17.70;8.43;;;5.20;79.50;;;;;;4959910;28;20236;-95
2022/12/10 20:22:16;;;;;;;17.67;8.40;;;5.10;79.50;;;;;;4962721;29;20215;-95
2022/12/10 20:24:49;;;;;;;17.07;7.60;;;5.10;79.90;;;;;;4958180;28;21049;-94
2022/12/10 20:27:18;;;;;;;16.43;8.07;;;5.10;80.40;;;;;;4956878;29;20708;-93
2022/12/10 20:29:48;;;;;;;18.63;8.67;;;5.00;80.10;;;;;;4954272;28;20192;-94
2022/12/10 20:32:24;;;;;;;16.03;8.63;;;5.00;80.10;;;;;;4959000;29;20183;-94
2022/12/10 20:34:56;;;;;;;15.40;8.63;;;5.00;80.30;;;;;;4962853;28;20215;-95
2022/12/10 20:37:28;;;;;;;23.87;10.27;;;5.00;80.60;;;;;;4955877;28;20563;-95
2022/12/10 20:40:04;;;;;;;17.80;10.20;;;4.90;80.30;;;;;;4941805;29;20207;-95
2022/12/10 20:42:31;;;;;;;18.93;10.47;;;4.90;80.50;;;;;;4973792;28;20313;-95
2022/12/10 20:45:02;;;;;;;21.37;11.20;;;4.90;80.40;;;;;;4978728;28;20333;-94
2022/12/10 20:47:44;;;;;;;23.83;10.63;;;4.90;81.00;;;;;;4957944;28;20238;-95
2022/12/10 20:50:18;;;;;;;13.43;8.83;;;4.90;80.90;;;;;;4961398;29;20207;-95
2022/12/10 20:52:53;;;;;;;15.30;9.40;;;4.80;80.80;;;;;;4961492;29;20226;-95
2022/12/10 20:55:25;;;;;;;19.50;9.70;;;4.80;81.20;;;;;;4960867;29;20215;-95
2022/12/10 20:57:55;;;;;;;20.77;10.63;;;4.80;81.00;;;;;;4958119;28;20223;-94
2022/12/10 21:00:25;;;;;;;16.30;10.63;;;4.80;80.80;;;;;;4957317;29;20218;-95
2022/12/10 21:02:55;;;;;;;17.67;10.37;;;4.70;81.00;;;;;;4960478;28;20250;-95
2022/12/10 21:05:27;;;;;;;24.20;11.13;;;4.70;81.30;;;;;;4959157;28;20246;-95
2022/12/10 21:08:06;;;;;;;17.30;9.73;;;4.70;81.10;;;;;;4964083;29;20267;-95
2022/12/10 21:10:55;;;;;;;17.67;9.47;;;4.70;81.30;;;;;;4961496;29;20262;-94
2022/12/10 21:13:26;;;;;;;19.17;10.33;;;4.60;81.60;;;;;;4963196;29;20208;-95
2022/12/10 21:15:54;;;;;;;16.80;9.63;;;4.70;81.60;;;;;;4966121;29;20658;-96
2022/12/10 21:21:13;;;;;;;20.97;10.23;;;4.60;81.70;;;;;;4968667;28;20231;-96
2022/12/10 21:23:42;;;;;;;16.33;9.50;;;4.50;81.70;;;;;;4976610;28;20204;-96
2022/12/10 21:26:33;;;;;;;19.00;10.50;;;4.50;81.80;;;;;;4968411;28;22014;-96
2022/12/10 21:29:03;;;;;;;14.13;7.90;;;4.50;82.10;;;;;;4962795;29;20379;-96
2022/12/10 21:31:38;;;;;;;20.53;10.10;;;4.50;82.30;;;;;;4965061;29;20207;-96
2022/12/10 21:34:19;;;;;;;24.07;10.77;;;4.50;82.70;;;;;;4962833;28;20271;-96
2022/12/10 21:36:49;;;;;;;23.20;11.60;;;4.40;82.70;;;;;;4952933;28;20236;-96
2022/12/10 21:39:41;;;;;;;20.10;10.30;;;4.40;82.70;;;;;;4957009;28;20656;-96
2022/12/10 21:44:59;;;;;;;15.90;10.27;;;4.40;83.00;;;;;;4959408;28;20268;-96
2022/12/10 21:47:33;;;;;;;24.60;12.10;;;4.40;82.90;;;;;;4951138;28;20211;-94
2022/12/10 21:50:02;;;;;;;22.00;12.33;;;4.30;82.90;;;;;;4957761;29;20267;-96
2022/12/10 21:52:33;;;;;;;25.33;13.03;;;4.40;83.00;;;;;;4964236;28;20215;-95
2022/12/10 21:55:12;;;;;;;22.93;12.40;;;4.30;83.80;;;;;;4956591;28;20228;-96
2022/12/10 21:57:58;;;;;;;23.03;12.40;;;4.30;83.40;;;;;;4964795;28;20211;-96
2022/12/10 22:00:33;;;;;;;25.17;13.63;;;4.30;83.60;;;;;;4979978;28;20199;-95
2022/12/10 22:03:02;;;;;;;19.90;11.60;;;4.30;83.50;;;;;;4955337;29;20287;-96
2022/12/10 22:05:31;;;;;;;25.97;14.33;;;4.30;83.80;;;;;;4966011;28;20238;-96
2022/12/10 22:08:03;;;;;;;24.33;13.90;;;4.30;83.80;;;;;;4963423;29;20218;-96
2022/12/10 22:10:37;;;;;;;32.00;15.00;;;4.30;84.10;;;;;;4963214;28;20200;-95
2022/12/10 22:13:10;;;;;;;34.20;17.00;;;4.30;84.20;;;;;;4955538;28;20301;-96
2022/12/10 22:15:46;;;;;;;31.33;15.33;;;4.40;84.70;;;;;;4966194;28;20576;-96
2022/12/10 22:18:35;;;;;;;26.43;14.23;;;4.30;84.80;;;;;;4982344;28;20233;-96
2022/12/10 22:21:06;;;;;;;23.17;11.60;;;4.30;84.90;;;;;;4976654;28;20223;-96
2022/12/10 22:23:35;;;;;;;26.90;13.80;;;4.30;84.70;;;;;;4965384;29;20207;-95
2022/12/10 22:26:11;;;;;;;28.27;13.83;;;4.30;85.00;;;;;;4965113;28;20238;-96
2022/12/10 22:28:45;;;;;;;33.03;14.80;;;4.30;85.40;;;;;;4959933;29;20207;-96
2022/12/10 22:31:19;;;;;;;34.83;15.13;;;4.30;85.60;;;;;;4964677;28;20214;-96
2022/12/10 22:33:47;;;;;;;27.57;13.23;;;4.30;85.90;;;;;;4967378;28;20231;-96
2022/12/10 22:36:21;;;;;;;26.33;12.97;;;4.30;86.00;;;;;;4967445;29;20254;-96
2022/12/10 22:38:52;;;;;;;27.50;12.50;;;4.30;86.60;;;;;;4966306;28;20199;-96
2022/12/10 22:41:28;;;;;;;30.03;13.57;;;4.30;86.60;;;;;;4965331;29;20207;-96
2022/12/10 22:44:01;;;;;;;22.93;12.37;;;4.30;87.20;;;;;;4964611;29;20234;-96
2022/12/10 22:46:37;;;;;;;27.03;12.77;;;4.30;87.40;;;;;;4967007;29;20294;-96
2022/12/10 22:49:20;;;;;;;29.63;14.03;;;4.30;87.80;;;;;;4977360;28;20230;-96
2022/12/10 22:51:52;;;;;;;31.13;14.47;;;4.30;88.00;;;;;;4986901;28;20207;-95
2022/12/10 22:54:19;;;;;;;27.13;13.80;;;4.40;87.90;;;;;;4967282;28;20200;-96
2022/12/10 22:56:49;;;;;;;33.27;15.03;;;4.30;87.60;;;;;;4958605;29;20228;-95
2022/12/10 22:59:22;;;;;;;30.33;13.43;;;4.30;88.30;;;;;;4935844;28;20212;-95
2022/12/10 23:01:51;;;;;;;35.67;15.27;;;4.40;88.70;;;;;;4934769;29;20268;-95
2022/12/10 23:04:21;;;;;;;26.10;13.47;;;4.40;88.60;;;;;;4923237;29;20200;-95
2022/12/10 23:06:51;;;;;;;33.40;15.13;;;4.40;89.00;;;;;;4925790;29;20300;-95
2022/12/10 23:09:20;;;;;;;31.00;12.77;;;4.50;89.10;;;;;;4931210;29;20219;-95